Newark Liberty International Airport
KEWR : rendu visible

Aérodrome :











RETROUVEZ-NOUS SUR...

 
LOGIN :

S'inscrire | Disclaimer

   EN    FR    IT 

 









Légende :    VFR   VFR Marginal   IFR   IFR Intensif   IFR Très Intensif
Visi : 
Plafond : 
>= 8 km
>= 3000ft
5 à 8 km
1000 à 3000 ft
1500m à 5 km
500 à 1000 ft
800 à 1500m
200 à 500 ft
< 800m
< 200 ft
Symboles :   Orages  Brouillard  Fortes neiges  Fortes précipitations  Vent > 20 kt






- Altitude de l'aérodrome : 18 ft
- Code IATA : EWR


KEWR - Newark Liberty International

DERNIER METAR :
  • 241451Z 00000KT 10SM FEW250 09/M02 A3007 RMK AO2 SLP180 T00941022 50001

METARs EXPIRÉS :
  • 241351Z 20003KT 9SM FEW250 06/M01 A3007 RMK AO2 SLP183 T00611006
  • 241251Z 20004KT 10SM CLR 04/00 A3007 RMK AO2 SLP181 T00390000

TAF KEWR
Valide du 24 à 14h jusqu'au 25 à 18h UTC


241416Z 2414/2518 22005KT P6SM FEW250
FM241900 17008KT P6SM BKN250
FM250100 19005KT P6SM OVC100
FM250800 20004KT P6SM SCT025 OVC050
FM251200 VRB04KT P6SM VCSH BKN025 OVC050
FM251600 06005KT 3SM -RA BR OVC009



MET'MAP, la Météo Aéronautique d'un coup d'oeil ! - Copyright ORBIFLY Décembre 2007 - Disclaimer

ORBIFLY MET'MAP TEAM :

Programmation & Développement : Alexandra Zaïnal
Sur une idée originale de : Baudouin d'Aumeries
Assistance à la programmation : Marc-Olivier Méhu
Soutien technique & logistique : Manuel Goepfert

Contact : metmap@orbifly.com




SOURCES & CREDITS :

   NOAA       Earth
Advisory